createdAt,value
2018-08-13T00:01:13.555Z,13.00
2018-08-13T00:03:42.120Z,13.00
2018-08-13T00:06:10.955Z,13.00
2018-08-13T00:08:39.703Z,13.10
2018-08-13T00:11:08.851Z,13.10
2018-08-13T00:13:37.385Z,13.00
2018-08-13T00:16:06.094Z,12.90
2018-08-13T00:18:34.899Z,12.90
2018-08-13T00:21:03.765Z,12.90
2018-08-13T00:23:32.299Z,12.90
2018-08-13T00:26:00.955Z,12.90
2018-08-13T00:28:29.829Z,13.00
2018-08-13T00:30:58.425Z,13.10
2018-08-13T00:33:27.273Z,12.90
2018-08-13T00:35:56.144Z,12.90
2018-08-13T00:38:24.839Z,12.90
2018-08-13T00:40:53.435Z,12.90
2018-08-13T00:43:22.345Z,12.90
2018-08-13T00:45:50.971Z,12.90
2018-08-13T00:48:19.540Z,12.80
2018-08-13T00:50:48.057Z,12.70
2018-08-13T00:53:16.723Z,12.90
2018-08-13T00:55:45.295Z,12.70
2018-08-13T00:58:14.291Z,12.60
2018-08-13T01:00:42.843Z,12.50
2018-08-13T01:03:11.372Z,12.40
2018-08-13T01:05:39.975Z,12.40
2018-08-13T01:08:08.544Z,12.40
2018-08-13T01:10:37.129Z,12.30
2018-08-13T01:13:06.138Z,12.30
2018-08-13T01:15:34.770Z,12.20
2018-08-13T01:18:03.386Z,12.20
2018-08-13T01:20:31.937Z,12.10
2018-08-13T01:23:00.459Z,12.10
2018-08-13T01:25:29.461Z,12.00
2018-08-13T01:27:58.028Z,12.00
2018-08-13T01:30:26.616Z,12.00
2018-08-13T01:32:55.375Z,12.10
2018-08-13T01:35:24.072Z,12.00
2018-08-13T01:37:52.813Z,11.90
2018-08-13T01:40:21.783Z,12.10
2018-08-13T01:42:50.394Z,12.10
2018-08-13T01:45:19.065Z,12.20
2018-08-13T01:47:47.637Z,12.10
2018-08-13T01:50:16.400Z,12.20
2018-08-13T01:52:45.015Z,12.20
2018-08-13T01:55:13.811Z,12.30
2018-08-13T01:57:42.639Z,12.30
2018-08-13T02:00:17.869Z,12.30
2018-08-13T02:02:46.506Z,12.10
2018-08-13T02:05:15.247Z,12.00
2018-08-13T02:07:44.056Z,12.10
2018-08-13T02:10:13.641Z,12.10
2018-08-13T02:12:42.683Z,12.20
2018-08-13T02:15:11.216Z,12.20
2018-08-13T02:17:39.783Z,12.30
2018-08-13T02:20:09.482Z,12.10
2018-08-13T02:22:38.448Z,11.90
2018-08-13T02:25:07.910Z,11.90
2018-08-13T02:27:36.597Z,11.90
2018-08-13T02:30:08.155Z,11.80
2018-08-13T02:32:36.664Z,11.80
2018-08-13T02:35:06.094Z,11.80
2018-08-13T02:37:34.603Z,11.90
2018-08-13T02:40:03.203Z,12.00
2018-08-13T02:42:31.749Z,12.10
2018-08-13T02:45:00.370Z,12.20
2018-08-13T02:47:28.872Z,12.20
2018-08-13T02:49:57.593Z,12.20
2018-08-13T02:52:26.165Z,12.10
2018-08-13T02:54:54.862Z,12.10
2018-08-13T02:57:23.654Z,12.20
2018-08-13T02:59:52.748Z,12.20
2018-08-13T03:02:21.286Z,12.00
2018-08-13T03:04:50.106Z,11.80
2018-08-13T03:07:18.576Z,11.90
2018-08-13T03:09:47.296Z,11.80
2018-08-13T03:12:15.832Z,11.90
2018-08-13T03:14:44.371Z,11.90
2018-08-13T03:17:12.974Z,11.90
2018-08-13T03:19:41.540Z,11.90
2018-08-13T03:22:10.037Z,11.90
2018-08-13T03:24:38.687Z,11.90
2018-08-13T03:27:07.471Z,11.90
2018-08-13T03:29:36.107Z,11.80
2018-08-13T03:32:04.746Z,11.70
2018-08-13T03:34:33.397Z,11.60
2018-08-13T03:37:01.945Z,11.60
2018-08-13T03:39:30.494Z,11.60
2018-08-13T03:41:59.194Z,11.60
2018-08-13T03:44:27.838Z,11.70
2018-08-13T03:46:56.539Z,11.60
2018-08-13T03:49:25.101Z,11.70
2018-08-13T03:51:53.613Z,11.60
2018-08-13T03:54:22.330Z,11.70
2018-08-13T03:56:51.110Z,11.70
2018-08-13T03:59:19.685Z,11.60
2018-08-13T04:01:48.304Z,11.70
2018-08-13T04:04:16.873Z,11.70
2018-08-13T04:06:45.385Z,11.70
2018-08-13T04:09:14.068Z,11.70
2018-08-13T04:11:42.764Z,11.80
2018-08-13T04:14:11.322Z,11.80
2018-08-13T04:16:40.254Z,11.90
2018-08-13T04:19:09.643Z,11.80
2018-08-13T04:21:38.150Z,11.80
2018-08-13T04:24:06.764Z,11.80
2018-08-13T04:26:35.305Z,11.80
2018-08-13T04:29:03.882Z,11.90
2018-08-13T04:31:32.397Z,11.80
2018-08-13T04:34:01.181Z,11.80
2018-08-13T04:36:29.739Z,11.70
2018-08-13T04:38:58.263Z,11.80
2018-08-13T04:41:26.806Z,11.90
2018-08-13T04:43:55.491Z,11.90
2018-08-13T04:46:24.351Z,12.00
2018-08-13T04:48:53.218Z,12.10
2018-08-13T04:51:22.018Z,12.20
2018-08-13T04:53:50.559Z,12.40
2018-08-13T04:56:19.381Z,12.60
2018-08-13T04:58:47.977Z,12.70
2018-08-13T05:01:16.683Z,12.80
2018-08-13T05:03:45.577Z,12.70
2018-08-13T05:06:14.341Z,13.00
2018-08-13T05:08:43.250Z,13.20
2018-08-13T05:11:12.098Z,13.40
2018-08-13T05:13:40.950Z,13.60
2018-08-13T05:16:09.538Z,13.80
2018-08-13T05:18:38.386Z,13.80
2018-08-13T05:21:07.326Z,13.90
2018-08-13T05:23:35.918Z,14.20
2018-08-13T05:26:04.541Z,14.50
2018-08-13T05:28:33.082Z,14.60
2018-08-13T05:31:01.724Z,14.50
2018-08-13T05:33:30.555Z,14.50
2018-08-13T05:35:59.413Z,14.70
2018-08-13T05:38:27.931Z,14.80
2018-08-13T05:40:56.468Z,15.10
2018-08-13T05:43:25.273Z,15.10
2018-08-13T05:45:54.011Z,15.10
2018-08-13T05:48:22.645Z,15.10
2018-08-13T05:50:51.179Z,15.20
2018-08-13T05:53:19.783Z,15.20
2018-08-13T05:55:48.312Z,15.20
2018-08-13T05:58:16.921Z,15.20
2018-08-13T06:00:45.459Z,15.50
2018-08-13T06:03:14.194Z,15.70
2018-08-13T06:05:42.871Z,15.90
2018-08-13T06:08:11.566Z,15.90
2018-08-13T06:10:40.133Z,16.10
2018-08-13T06:13:08.900Z,16.30
2018-08-13T06:15:37.463Z,16.40
2018-08-13T06:18:06.595Z,16.50
2018-08-13T06:20:35.442Z,16.60
2018-08-13T06:23:04.060Z,16.80
2018-08-13T06:25:32.618Z,16.80
2018-08-13T06:28:01.433Z,16.80
2018-08-13T06:30:30.018Z,16.70
2018-08-13T06:32:58.620Z,16.80
2018-08-13T06:35:27.305Z,17.20
2018-08-13T06:37:55.932Z,17.50
2018-08-13T06:40:24.775Z,17.50
2018-08-13T06:42:53.313Z,17.50
2018-08-13T06:45:22.665Z,17.30
2018-08-13T06:47:51.256Z,17.10
2018-08-13T06:50:19.819Z,17.00
2018-08-13T06:52:48.425Z,17.10
2018-08-13T06:55:17.284Z,17.10
2018-08-13T06:57:45.945Z,16.90
2018-08-13T07:00:15.069Z,17.00
2018-08-13T07:02:43.840Z,17.00
2018-08-13T07:05:12.423Z,17.60
2018-08-13T07:07:41.744Z,17.70
2018-08-13T07:10:11.810Z,17.60
2018-08-13T07:12:42.249Z,17.30
2018-08-13T07:15:11.375Z,17.30
2018-08-13T07:17:39.943Z,17.00
2018-08-13T07:20:12.680Z,16.80
2018-08-13T07:22:41.773Z,16.80
2018-08-13T07:25:10.534Z,16.70
2018-08-13T07:27:40.122Z,16.60
2018-08-13T07:30:11.008Z,16.40
2018-08-13T07:32:40.028Z,16.30
2018-08-13T07:35:09.147Z,16.30
2018-08-13T07:37:37.934Z,16.40
2018-08-13T07:40:09.294Z,16.30
2018-08-13T07:42:38.185Z,16.40
2018-08-13T07:45:07.661Z,16.40
2018-08-13T07:47:36.455Z,16.30
2018-08-13T07:50:06.313Z,16.20
2018-08-13T07:52:34.866Z,16.10
2018-08-13T07:55:03.420Z,16.20
2018-08-13T07:57:32.376Z,16.20
2018-08-13T08:00:01.279Z,16.30
2018-08-13T08:02:30.183Z,16.50
2018-08-13T08:04:59.059Z,16.40
2018-08-13T08:07:28.293Z,16.40
2018-08-13T08:09:56.970Z,16.30
2018-08-13T08:12:26.145Z,16.30
2018-08-13T08:14:54.814Z,16.50
2018-08-13T08:17:23.809Z,16.60
2018-08-13T08:19:52.505Z,16.80
2018-08-13T08:22:21.071Z,16.80
2018-08-13T08:24:49.552Z,16.70
2018-08-13T08:27:18.253Z,16.60
2018-08-13T08:29:46.999Z,16.80
2018-08-13T08:32:15.587Z,16.90
2018-08-13T08:34:44.405Z,17.00
2018-08-13T08:37:13.120Z,17.00
2018-08-13T08:39:41.951Z,17.00
2018-08-13T08:42:10.503Z,17.10
2018-08-13T08:44:39.295Z,17.20
2018-08-13T08:47:08.119Z,17.20
2018-08-13T08:49:36.778Z,17.30
2018-08-13T08:52:05.409Z,17.50
2018-08-13T08:54:34.461Z,17.70
2018-08-13T08:57:03.072Z,17.70
2018-08-13T08:59:31.768Z,17.80
2018-08-13T09:02:00.542Z,18.10
2018-08-13T09:04:29.381Z,18.30
2018-08-13T09:06:57.985Z,18.40
2018-08-13T09:09:27.045Z,18.50
2018-08-13T09:11:56.306Z,18.70
2018-08-13T09:14:25.149Z,18.80
2018-08-13T09:16:54.225Z,18.50
2018-08-13T09:19:34.096Z,18.40
2018-08-13T09:22:13.706Z,18.60
2018-08-13T09:24:53.619Z,18.80
2018-08-13T09:27:33.514Z,18.80
2018-08-13T09:30:13.700Z,18.80
2018-08-13T09:32:53.511Z,19.00
2018-08-13T09:35:26.956Z,19.10
2018-08-13T09:37:56.339Z,19.30
2018-08-13T09:40:25.760Z,19.30
2018-08-13T09:42:55.068Z,19.20
2018-08-13T09:45:23.911Z,19.30
2018-08-13T09:47:52.736Z,19.40
2018-08-13T09:50:21.794Z,19.30
2018-08-13T09:52:51.095Z,19.20
2018-08-13T09:55:20.689Z,19.10
2018-08-13T09:57:50.076Z,19.10
2018-08-13T10:00:25.266Z,19.20
2018-08-13T10:02:54.145Z,19.30
2018-08-13T10:05:23.139Z,19.50
2018-08-13T10:07:52.241Z,19.40
2018-08-13T10:10:20.898Z,19.70
2018-08-13T10:12:49.581Z,19.40
2018-08-13T10:15:18.464Z,19.40
2018-08-13T10:17:47.129Z,19.60
2018-08-13T10:20:17.909Z,19.90
2018-08-13T10:22:46.897Z,20.10
2018-08-13T10:25:15.838Z,20.10
2018-08-13T10:27:44.665Z,20.10
2018-08-13T10:30:14.523Z,20.30
2018-08-13T10:32:43.548Z,20.50
2018-08-13T10:35:12.463Z,20.50
2018-08-13T10:37:41.681Z,20.60
2018-08-13T10:40:15.412Z,20.60
2018-08-13T10:42:44.292Z,20.90
2018-08-13T10:45:13.137Z,21.00
2018-08-13T10:47:41.885Z,21.20
2018-08-13T10:50:12.030Z,21.40
2018-08-13T10:52:41.105Z,21.40
2018-08-13T10:55:11.654Z,21.20
2018-08-13T10:57:40.630Z,21.10
2018-08-13T11:00:11.375Z,21.00
2018-08-13T11:02:40.561Z,20.80
2018-08-13T11:05:10.827Z,20.70
2018-08-13T11:07:39.735Z,20.70
2018-08-13T11:10:10.537Z,20.30
2018-08-13T11:12:39.294Z,20.20
2018-08-13T11:15:15.841Z,20.30
2018-08-13T11:17:44.517Z,20.30
2018-08-13T11:20:13.474Z,20.50
2018-08-13T11:22:42.553Z,20.60
2018-08-13T11:25:13.020Z,21.00
2018-08-13T11:27:42.127Z,21.40
2018-08-13T11:30:12.754Z,21.50
2018-08-13T11:32:41.687Z,21.40
2018-08-13T11:35:10.599Z,21.50
2018-08-13T11:37:39.335Z,21.60
2018-08-13T11:40:12.601Z,21.60
2018-08-13T11:42:41.514Z,21.40
2018-08-13T11:45:10.466Z,21.40
2018-08-13T11:47:39.658Z,21.40
2018-08-13T11:50:13.543Z,21.10
2018-08-13T11:52:42.777Z,21.00
2018-08-13T11:55:11.354Z,20.90
2018-08-13T11:57:40.279Z,20.70
2018-08-13T12:00:11.118Z,20.20
2018-08-13T12:02:40.998Z,19.60
2018-08-13T12:05:11.893Z,19.30
2018-08-13T12:07:40.744Z,19.00
2018-08-13T12:10:10.671Z,18.90
2018-08-13T12:12:39.998Z,18.80
2018-08-13T12:15:09.804Z,18.70
2018-08-13T12:17:38.771Z,18.60
2018-08-13T12:20:09.789Z,18.50
2018-08-13T12:22:38.572Z,18.50
2018-08-13T12:25:08.324Z,18.50
2018-08-13T12:27:37.069Z,18.60
2018-08-13T12:30:08.227Z,18.60
2018-08-13T12:32:36.844Z,18.60
2018-08-13T12:35:06.207Z,18.70
2018-08-13T12:37:35.068Z,18.70
2018-08-13T12:40:04.929Z,18.90
2018-08-13T12:42:33.827Z,19.10
2018-08-13T12:45:02.466Z,19.50
2018-08-13T12:47:31.370Z,19.90
2018-08-13T12:50:00.234Z,20.80
2018-08-13T12:52:29.141Z,21.70
2018-08-13T12:54:57.952Z,22.30
2018-08-13T12:57:26.752Z,22.70
2018-08-13T12:59:55.470Z,23.10
2018-08-13T13:04:23.645Z,23.10
2018-08-13T13:06:52.236Z,22.40
2018-08-13T13:09:21.278Z,22.00
2018-08-13T13:11:50.231Z,21.20
2018-08-13T13:14:18.849Z,21.20
2018-08-13T13:16:47.385Z,20.90
2018-08-13T13:19:16.113Z,20.70
2018-08-13T13:21:44.809Z,20.40
2018-08-13T13:24:13.462Z,20.50
2018-08-13T13:26:42.386Z,20.20
2018-08-13T13:29:11.314Z,20.20
2018-08-13T13:31:40.299Z,20.30
2018-08-13T13:34:09.148Z,20.40
2018-08-13T13:36:37.785Z,20.60
2018-08-13T13:39:08.156Z,20.60
2018-08-13T13:41:36.805Z,20.60
2018-08-13T13:44:05.836Z,20.40
2018-08-13T13:46:34.518Z,20.20
2018-08-13T13:49:03.348Z,20.30
2018-08-13T13:51:32.074Z,20.30
2018-08-13T13:54:00.618Z,20.70
2018-08-13T13:56:29.304Z,21.60
2018-08-13T13:58:58.030Z,23.60
2018-08-13T14:01:26.741Z,25.60
2018-08-13T14:03:55.664Z,27.40
2018-08-13T14:06:24.316Z,28.10
2018-08-13T14:08:53.419Z,27.90
2018-08-13T14:11:22.520Z,27.90
2018-08-13T14:13:51.072Z,27.00
2018-08-13T14:16:19.674Z,26.60
2018-08-13T14:18:48.420Z,26.20
2018-08-13T14:21:17.147Z,27.60
2018-08-13T14:23:45.750Z,28.10
2018-08-13T14:26:14.335Z,29.10
2018-08-13T14:28:42.945Z,28.70
2018-08-13T14:31:12.043Z,28.70
2018-08-13T14:33:40.992Z,27.60
2018-08-13T14:36:10.049Z,26.30
2018-08-13T14:38:38.680Z,25.30
2018-08-13T14:41:07.592Z,24.20
2018-08-13T14:43:36.198Z,23.90
2018-08-13T14:46:05.094Z,23.20
2018-08-13T14:48:33.795Z,22.60
2018-08-13T14:51:02.625Z,21.90
2018-08-13T14:53:31.126Z,20.30
2018-08-13T14:55:59.687Z,19.30
2018-08-13T14:58:28.353Z,18.40
2018-08-13T15:00:56.950Z,17.80
2018-08-13T15:03:25.813Z,17.40
2018-08-13T15:05:54.389Z,17.20
2018-08-13T15:08:23.262Z,17.20
2018-08-13T15:10:52.021Z,17.30
2018-08-13T15:13:21.128Z,17.70
2018-08-13T15:15:50.441Z,18.10
2018-08-13T15:18:19.537Z,18.20
2018-08-13T15:20:48.439Z,18.50
2018-08-13T15:23:17.412Z,18.70
2018-08-13T15:25:46.293Z,18.70
2018-08-13T15:28:14.958Z,18.70
2018-08-13T15:30:43.781Z,19.00
2018-08-13T15:33:12.523Z,19.10
2018-08-13T15:35:41.120Z,19.10
2018-08-13T15:38:10.067Z,19.40
2018-08-13T15:40:38.970Z,19.70
2018-08-13T15:43:07.649Z,20.70
2018-08-13T15:45:36.206Z,22.10
2018-08-13T15:48:05.221Z,23.20
2018-08-13T15:50:33.828Z,23.60
2018-08-13T15:53:02.419Z,23.80
2018-08-13T15:55:31.188Z,24.90
2018-08-13T15:58:00.204Z,25.10
2018-08-13T16:00:28.961Z,25.50
2018-08-13T16:02:57.784Z,26.70
2018-08-13T16:05:26.479Z,26.60
2018-08-13T16:07:55.127Z,25.30
2018-08-13T16:10:24.028Z,24.40
2018-08-13T16:12:55.235Z,23.70
2018-08-13T16:15:24.688Z,23.50
2018-08-13T16:17:53.554Z,23.10
2018-08-13T16:20:22.468Z,22.80
2018-08-13T16:22:51.491Z,22.20
2018-08-13T16:25:20.418Z,21.80
2018-08-13T16:27:49.078Z,21.40
2018-08-13T16:30:21.588Z,21.10
2018-08-13T16:32:50.502Z,20.70
2018-08-13T16:35:19.825Z,20.50
2018-08-13T16:37:48.757Z,20.40
2018-08-13T16:40:18.338Z,20.20
2018-08-13T16:42:47.516Z,20.20
2018-08-13T16:45:17.500Z,20.20
2018-08-13T16:47:46.602Z,20.00
2018-08-13T16:50:20.013Z,19.90
2018-08-13T16:52:48.954Z,19.80
2018-08-13T16:55:17.655Z,19.70
2018-08-13T16:57:46.788Z,19.70
2018-08-13T17:00:17.750Z,19.70
2018-08-13T17:02:46.609Z,19.70
2018-08-13T17:05:15.386Z,19.50
2018-08-13T17:07:44.530Z,19.30
2018-08-13T17:10:24.379Z,19.30
2018-08-13T17:12:53.821Z,19.30
2018-08-13T17:15:23.209Z,19.40
2018-08-13T17:17:53.549Z,19.40
2018-08-13T17:20:27.319Z,19.40
2018-08-13T17:22:56.393Z,19.20
2018-08-13T17:25:25.260Z,23.00
2018-08-13T17:27:54.228Z,18.90
2018-08-13T17:30:24.427Z,18.80
2018-08-13T17:32:54.394Z,18.60
2018-08-13T17:35:25.416Z,18.50
2018-08-13T17:37:54.390Z,18.20
2018-08-13T17:40:24.265Z,18.20
2018-08-13T17:42:54.208Z,18.10
2018-08-13T17:45:23.445Z,18.10
2018-08-13T17:47:52.309Z,18.20
2018-08-13T17:50:22.137Z,18.40
2018-08-13T17:52:51.000Z,18.60
2018-08-13T17:55:19.927Z,18.70
2018-08-13T17:57:48.928Z,18.70
2018-08-13T18:00:22.407Z,18.60
2018-08-13T18:02:51.242Z,18.40
2018-08-13T18:05:22.016Z,18.20
2018-08-13T18:07:51.390Z,18.00
2018-08-13T18:10:22.501Z,18.10
2018-08-13T18:12:51.387Z,18.10
2018-08-13T18:15:20.512Z,17.90
2018-08-13T18:17:49.406Z,17.70
2018-08-13T18:20:18.497Z,17.60
2018-08-13T18:22:47.345Z,17.60
2018-08-13T18:25:16.977Z,17.40
2018-08-13T18:27:47.117Z,17.40
2018-08-13T18:30:18.721Z,17.40
2018-08-13T18:32:47.845Z,17.40
2018-08-13T18:35:17.105Z,17.30
2018-08-13T18:37:46.159Z,17.30
2018-08-13T18:40:21.193Z,17.30
2018-08-13T18:42:50.327Z,17.10
2018-08-13T18:45:19.271Z,17.10
2018-08-13T18:47:48.763Z,17.00
2018-08-13T18:50:18.696Z,17.00
2018-08-13T18:52:47.886Z,16.90
2018-08-13T18:55:17.841Z,16.90
2018-08-13T18:57:46.878Z,16.80
2018-08-13T19:00:18.134Z,16.70
2018-08-13T19:02:47.457Z,16.70
2018-08-13T19:05:17.562Z,16.50
2018-08-13T19:07:46.880Z,16.40
2018-08-13T19:10:16.743Z,16.30
2018-08-13T19:12:45.570Z,16.20
2018-08-13T19:15:17.394Z,16.10
2018-08-13T19:17:46.536Z,16.00
2018-08-13T19:20:16.080Z,15.90
2018-08-13T19:22:45.018Z,15.90
2018-08-13T19:25:17.376Z,15.90
2018-08-13T19:27:46.263Z,15.70
2018-08-13T19:30:16.785Z,15.70
2018-08-13T19:32:47.010Z,15.60
2018-08-13T19:35:16.019Z,15.50
2018-08-13T19:37:45.117Z,15.40
2018-08-13T19:40:16.180Z,15.50
2018-08-13T19:42:46.013Z,15.50
2018-08-13T19:45:15.756Z,15.40
2018-08-13T19:47:45.094Z,15.40
2018-08-13T19:50:14.639Z,15.40
2018-08-13T19:52:44.423Z,15.40
2018-08-13T19:55:13.700Z,15.40
2018-08-13T19:57:42.534Z,15.50
2018-08-13T20:00:13.847Z,15.50
2018-08-13T20:02:43.018Z,15.40
2018-08-13T20:05:11.823Z,15.40
2018-08-13T20:07:40.797Z,15.40
2018-08-13T20:10:11.776Z,15.30
2018-08-13T20:12:40.737Z,15.30
2018-08-13T20:15:10.025Z,15.30
2018-08-13T20:17:39.004Z,15.20
2018-08-13T20:20:11.696Z,15.20
2018-08-13T20:22:40.894Z,15.30
2018-08-13T20:25:11.495Z,15.30
2018-08-13T20:27:40.659Z,15.20
2018-08-13T20:30:12.965Z,15.20
2018-08-13T20:32:42.191Z,15.20
2018-08-13T20:35:10.882Z,15.30
2018-08-13T20:37:39.983Z,15.20
2018-08-13T20:40:12.102Z,15.20
2018-08-13T20:42:41.483Z,15.30
2018-08-13T20:45:12.896Z,15.20
2018-08-13T20:47:41.927Z,15.20
2018-08-13T20:50:18.987Z,15.20
2018-08-13T20:52:48.772Z,15.20
2018-08-13T20:55:20.324Z,15.30
2018-08-13T20:57:49.591Z,15.30
2018-08-13T21:00:20.292Z,15.30
2018-08-13T21:02:49.120Z,15.30
2018-08-13T21:05:18.238Z,15.20
2018-08-13T21:07:47.982Z,15.30
2018-08-13T21:10:18.755Z,15.20
2018-08-13T21:12:47.600Z,15.10
2018-08-13T21:15:16.670Z,15.00
2018-08-13T21:17:45.389Z,15.00
2018-08-13T21:20:19.883Z,15.00
2018-08-13T21:22:48.649Z,14.90
2018-08-13T21:25:17.393Z,14.90
2018-08-13T21:27:46.330Z,14.70
2018-08-13T21:30:15.255Z,14.70
2018-08-13T21:32:44.465Z,14.70
2018-08-13T21:35:16.877Z,14.60
2018-08-13T21:37:46.109Z,14.50
2018-08-13T21:40:14.793Z,14.50
2018-08-13T21:42:43.929Z,14.50
2018-08-13T21:45:13.110Z,14.50
2018-08-13T21:47:42.069Z,14.50
2018-08-13T21:50:13.972Z,14.50
2018-08-13T21:52:42.561Z,14.60
2018-08-13T21:55:11.489Z,14.60
2018-08-13T21:57:40.183Z,14.60
2018-08-13T22:00:16.241Z,14.60
2018-08-13T22:02:45.051Z,14.60
2018-08-13T22:05:13.732Z,14.60
2018-08-13T22:07:42.370Z,14.70
2018-08-13T22:10:10.960Z,14.70
2018-08-13T22:12:39.734Z,14.70
2018-08-13T22:15:25.118Z,14.70
2018-08-13T22:17:54.753Z,14.70
2018-08-13T22:20:24.070Z,14.80
2018-08-13T22:22:52.707Z,14.70
2018-08-13T22:25:24.425Z,14.70
2018-08-13T22:27:53.318Z,14.60
2018-08-13T22:30:21.974Z,14.60
2018-08-13T22:32:50.685Z,14.50
2018-08-13T22:35:19.308Z,14.50
2018-08-13T22:37:48.240Z,14.40
2018-08-13T22:40:20.713Z,14.40
2018-08-13T22:42:49.295Z,14.30
2018-08-13T22:45:21.699Z,14.30
2018-08-13T22:47:50.332Z,14.40
2018-08-13T22:50:18.945Z,14.50
2018-08-13T22:52:47.646Z,14.60
2018-08-13T22:55:17.879Z,14.70
2018-08-13T22:57:46.757Z,14.80
2018-08-13T23:00:16.758Z,14.80
2018-08-13T23:02:46.087Z,14.90
2018-08-13T23:05:19.542Z,15.10
2018-08-13T23:07:48.290Z,15.20
2018-08-13T23:10:19.154Z,15.20
2018-08-13T23:12:49.105Z,15.20
2018-08-13T23:15:18.495Z,15.20
2018-08-13T23:17:47.581Z,15.20
2018-08-13T23:20:19.254Z,15.20
2018-08-13T23:22:49.960Z,15.30
2018-08-13T23:25:18.999Z,15.40
2018-08-13T23:27:48.908Z,15.40
2018-08-13T23:30:17.896Z,15.50
2018-08-13T23:32:48.522Z,15.50
2018-08-13T23:35:18.214Z,15.50
2018-08-13T23:37:46.985Z,15.50
2018-08-13T23:40:15.669Z,15.40
2018-08-13T23:42:44.193Z,15.30
2018-08-13T23:45:14.512Z,15.30
2018-08-13T23:47:43.284Z,15.40
2018-08-13T23:50:13.969Z,15.30
2018-08-13T23:52:42.721Z,15.30
2018-08-13T23:55:14.801Z,15.30
2018-08-13T23:57:43.514Z,15.40
